Atleta — CUGK4 — position and weather

sailwx.info

Track history (hours):
 
Tides and Currents Weather Stations Pressure Air Temp Water Temp Dewpoint Dewpoint Depression Visibility Wind Speed Wind Dir Waves Ship Positions

Atleta

Last reported at 2017-Oct-02 18:09 UTC. Time now 2017-Nov-22 16:40 UTC.
Position N 39°16' W 009°23'.
Warning: this ship's position is 50 days out of date.

Length 24 m.

Type: Fishing. MMSI: 263407740.

Date/timePositionNaut miles runAvg speedWind from/ knotsBaromVisibWave heightAir tempDewpointWater temp
2017-Oct-02 18:09N 39°16' W 009°23'1 9.9
2017-Oct-02 18:00N 39°14' W 009°23'5 9.7
2017-Oct-02 17:30N 39°09' W 009°25'5 9.6
2017-Oct-02 17:00N 39°05' W 009°26'5 9.4
2017-Oct-02 16:31N 39°00' W 009°28'3 6.6
2017-Oct-02 16:00N 38°57' W 009°28'1 1.6
2017-Oct-02 15:30N 38°56' W 009°27'510.3
2017-Oct-02 15:00N 39°01' W 009°28'511.0
2017-Oct-02 14:30N 39°07' W 009°26'510.3
2017-Oct-02 14:00N 39°12' W 009°25'4 7.6
2017-Oct-02 13:26N 39°16' W 009°24'  
2017-Sep-29 04:40N 39°52' W 008°59'2 4.3
2017-Sep-29 04:15N 39°51' W 009°00'0 0.1
2017-Sep-29 04:00N 39°51' W 009°00'1 0.8
2017-Sep-29 03:21N 39°51' W 009°01'2 3.4
2017-Sep-29 02:54N 39°53' W 009°00'6 8.2
2017-Sep-29 02:11N 39°48' W 009°03'31 5.8
2017-Sep-28 20:51N 39°20' W 009°23'510.1
2017-Sep-28 20:24N 39°16' W 009°23'410.0
2017-Sep-28 19:59N 39°12' W 009°24'510.1
2017-Sep-28 19:30N 39°07' W 009°26'4 8.3
2017-Sep-28 19:00N 39°03' W 009°27'1 2.4
2017-Sep-28 18:30N 39°02' W 009°27'510.1
2017-Sep-28 18:00N 38°57' W 009°28'2 4.2
2017-Sep-28 17:30N 38°55' W 009°28'0 0.0
2017-Sep-28 17:00N 38°55' W 009°28'0 0.1
2017-Sep-28 16:30N 38°55' W 009°28'0 0.4
2017-Sep-28 16:00N 38°54' W 009°28'1 1.1
2017-Sep-28 15:30N 38°54' W 009°29'5 9.8
2017-Sep-28 15:00N 38°59' W 009°28'511.0
2017-Sep-28 14:30N 39°04' W 009°27'611.0
2017-Sep-28 13:59N 39°10' W 009°25'711.0
2017-Sep-28 13:24N 39°16' W 009°24'0 0.0
2017-Sep-27 19:29N 39°16' W 009°23'510.1
2017-Sep-27 19:00N 39°12' W 009°25'510.2
2017-Sep-27 18:30N 39°07' W 009°26'510.5
2017-Sep-27 18:00N 39°01' W 009°27'5 9.5
2017-Sep-27 17:30N 38°57' W 009°27'0 0.1
2017-Sep-27 17:00N 38°57' W 009°27'0 0.2
2017-Sep-27 16:30N 38°57' W 009°27'1 2.8
2017-Sep-27 16:00N 38°58' W 009°28'510.5
2017-Sep-27 15:30N 39°03' W 009°27'510.5
2017-Sep-27 15:00N 39°08' W 009°24'4 9.0
2017-Sep-27 14:30N 39°12' W 009°26'1 2.2
2017-Sep-27 14:00N 39°12' W 009°25'5 8.0
2017-Sep-27 13:19N 39°17' W 009°24'2 0.1
2017-Sep-26 19:53N 39°19' W 009°23'510.2
2017-Sep-26 19:23N 39°14' W 009°24'2 3.9
2017-Sep-26 18:55N 39°12' W 009°25'0 0.2
2017-Sep-26 18:30N 39°12' W 009°25'0 0.2
2017-Sep-26 18:00N 39°12' W 009°25'3 5.8
2017-Sep-26 17:30N 39°15' W 009°25'5 9.3
2017-Sep-26 17:00N 39°20' W 009°23'2 0.9
2017-Sep-26 15:17N 39°21' W 009°22'3 9.2
2017-Sep-26 15:00N 39°19' W 009°23'3 5.5
2017-Sep-26 14:26N 39°16' W 009°24'0 0.2
2017-Sep-26 13:58N 39°16' W 009°24'0 0.3
2017-Sep-26 13:30N 39°16' W 009°24'2 0.1
2017-Sep-25 15:58N 39°17' W 009°23'5 9.8
2017-Sep-25 15:30N 39°13' W 009°25'1 1.7
2017-Sep-25 15:00N 39°12' W 009°25'0 0.3
2017-Sep-25 14:30N 39°12' W 009°25'0 0.3
2017-Sep-25 14:00N 39°12' W 009°25'  
Track history (hours):
 
Tides and Currents Weather Stations Pressure Air Temp Water Temp Dewpoint Dewpoint Depression Visibility Wind Speed Wind Dir Waves Ship Positions

Atleta

Last reported at 2017-Oct-02 18:09 UTC. Time now 2017-Nov-22 16:40 UTC.
Position N 39°16' W 009°23'.
Warning: this ship's position is 50 days out of date.

Length 24 m.

Type: Fishing. MMSI: 263407740.

Date/timePositionNaut miles runAvg speedWind from/ knotsBaromVisibWave heightAir tempDewpointWater temp
2017-Oct-02 18:09N 39°16' W 009°23'1 9.9
2017-Oct-02 18:00N 39°14' W 009°23'5 9.7
2017-Oct-02 17:30N 39°09' W 009°25'5 9.6
2017-Oct-02 17:00N 39°05' W 009°26'5 9.4
2017-Oct-02 16:31N 39°00' W 009°28'3 6.6
2017-Oct-02 16:00N 38°57' W 009°28'1 1.6
2017-Oct-02 15:30N 38°56' W 009°27'510.3
2017-Oct-02 15:00N 39°01' W 009°28'511.0
2017-Oct-02 14:30N 39°07' W 009°26'510.3
2017-Oct-02 14:00N 39°12' W 009°25'4 7.6
2017-Oct-02 13:26N 39°16' W 009°24'  
2017-Sep-29 04:40N 39°52' W 008°59'2 4.3
2017-Sep-29 04:15N 39°51' W 009°00'0 0.1
2017-Sep-29 04:00N 39°51' W 009°00'1 0.8
2017-Sep-29 03:21N 39°51' W 009°01'2 3.4
2017-Sep-29 02:54N 39°53' W 009°00'6 8.2
2017-Sep-29 02:11N 39°48' W 009°03'31 5.8
2017-Sep-28 20:51N 39°20' W 009°23'510.1
2017-Sep-28 20:24N 39°16' W 009°23'410.0
2017-Sep-28 19:59N 39°12' W 009°24'510.1
2017-Sep-28 19:30N 39°07' W 009°26'4 8.3
2017-Sep-28 19:00N 39°03' W 009°27'1 2.4
2017-Sep-28 18:30N 39°02' W 009°27'510.1
2017-Sep-28 18:00N 38°57' W 009°28'2 4.2
2017-Sep-28 17:30N 38°55' W 009°28'0 0.0
2017-Sep-28 17:00N 38°55' W 009°28'0 0.1
2017-Sep-28 16:30N 38°55' W 009°28'0 0.4
2017-Sep-28 16:00N 38°54' W 009°28'1 1.1
2017-Sep-28 15:30N 38°54' W 009°29'5 9.8
2017-Sep-28 15:00N 38°59' W 009°28'511.0
2017-Sep-28 14:30N 39°04' W 009°27'611.0
2017-Sep-28 13:59N 39°10' W 009°25'711.0
2017-Sep-28 13:24N 39°16' W 009°24'0 0.0
2017-Sep-27 19:29N 39°16' W 009°23'510.1
2017-Sep-27 19:00N 39°12' W 009°25'510.2
2017-Sep-27 18:30N 39°07' W 009°26'510.5
2017-Sep-27 18:00N 39°01' W 009°27'5 9.5
2017-Sep-27 17:30N 38°57' W 009°27'0 0.1
2017-Sep-27 17:00N 38°57' W 009°27'0 0.2
2017-Sep-27 16:30N 38°57' W 009°27'1 2.8
2017-Sep-27 16:00N 38°58' W 009°28'510.5
2017-Sep-27 15:30N 39°03' W 009°27'510.5
2017-Sep-27 15:00N 39°08' W 009°24'4 9.0
2017-Sep-27 14:30N 39°12' W 009°26'1 2.2
2017-Sep-27 14:00N 39°12' W 009°25'5 8.0
2017-Sep-27 13:19N 39°17' W 009°24'2 0.1
2017-Sep-26 19:53N 39°19' W 009°23'510.2
2017-Sep-26 19:23N 39°14' W 009°24'2 3.9
2017-Sep-26 18:55N 39°12' W 009°25'0 0.2
2017-Sep-26 18:30N 39°12' W 009°25'0 0.2
2017-Sep-26 18:00N 39°12' W 009°25'3 5.8
2017-Sep-26 17:30N 39°15' W 009°25'5 9.3
2017-Sep-26 17:00N 39°20' W 009°23'2 0.9
2017-Sep-26 15:17N 39°21' W 009°22'3 9.2
2017-Sep-26 15:00N 39°19' W 009°23'3 5.5
2017-Sep-26 14:26N 39°16' W 009°24'0 0.2
2017-Sep-26 13:58N 39°16' W 009°24'0 0.3
2017-Sep-26 13:30N 39°16' W 009°24'2 0.1
2017-Sep-25 15:58N 39°17' W 009°23'5 9.8
2017-Sep-25 15:30N 39°13' W 009°25'1 1.7
2017-Sep-25 15:00N 39°12' W 009°25'0 0.3
2017-Sep-25 14:30N 39°12' W 009°25'0 0.3
2017-Sep-25 14:00N 39°12' W 009°25'  

Dump ship's entire track history